createdAt,value
2018-09-17T00:00:13.658Z,96.75
2018-09-17T00:01:13.645Z,96.34
2018-09-17T00:02:13.648Z,96.18
2018-09-17T00:03:13.655Z,96.18
2018-09-17T00:04:13.634Z,96.89
2018-09-17T00:05:13.601Z,97.09
2018-09-17T00:06:13.593Z,97.71
2018-09-17T00:07:13.596Z,97.87
2018-09-17T00:08:13.569Z,97.00
2018-09-17T00:09:13.559Z,97.45
2018-09-17T00:10:13.567Z,96.43
2018-09-17T00:11:13.594Z,96.73
2018-09-17T00:12:13.555Z,96.94
2018-09-17T00:13:13.546Z,97.04
2018-09-17T00:14:13.505Z,97.60
2018-09-17T00:15:13.494Z,97.34
2018-09-17T00:16:13.485Z,97.60
2018-09-17T00:17:13.487Z,97.80
2018-09-17T00:18:13.462Z,97.75
2018-09-17T00:19:13.480Z,97.75
2018-09-17T00:20:13.441Z,97.86
2018-09-17T00:21:13.428Z,97.39
2018-09-17T00:22:13.442Z,97.60
2018-09-17T00:23:13.407Z,97.34
2018-09-17T00:24:13.399Z,97.75
2018-09-17T00:25:13.405Z,97.90
2018-09-17T00:26:13.405Z,97.80
2018-09-17T00:27:13.364Z,97.86
2018-09-17T00:28:13.374Z,98.06
2018-09-17T00:29:13.343Z,98.16
2018-09-17T00:30:13.330Z,98.98
2018-09-17T00:31:13.321Z,98.93
2018-09-17T00:32:13.337Z,98.47
2018-09-17T00:33:13.337Z,98.36
2018-09-17T00:34:13.287Z,98.31
2018-09-17T00:35:13.276Z,97.90
2018-09-17T00:36:13.266Z,97.96
2018-09-17T00:37:13.254Z,98.16
2018-09-17T00:38:13.259Z,98.36
2018-09-17T00:39:13.256Z,98.77
2018-09-17T00:40:13.232Z,98.36
2018-09-17T00:41:13.210Z,98.16
2018-09-17T00:42:13.200Z,98.27
2018-09-17T00:43:13.206Z,98.27
2018-09-17T00:44:13.184Z,98.16
2018-09-17T00:45:13.168Z,98.11
2018-09-17T00:46:13.179Z,98.31
2018-09-17T00:47:13.145Z,98.68
2018-09-17T00:48:13.152Z,98.16
2018-09-17T00:49:13.124Z,98.16
2018-09-17T00:50:13.156Z,98.88
2018-09-17T00:51:13.100Z,98.41
2018-09-17T00:52:13.113Z,98.31
2018-09-17T00:53:13.101Z,98.11
2018-09-17T00:54:13.069Z,98.88
2018-09-17T00:55:13.057Z,98.73
2018-09-17T00:56:13.046Z,98.83
2018-09-17T00:57:13.073Z,98.83
2018-09-17T00:58:13.080Z,99.40
2018-09-17T00:59:13.014Z,99.00
2018-09-17T01:00:13.004Z,99.00
2018-09-17T01:01:12.991Z,98.90
2018-09-17T01:02:12.982Z,98.59
2018-09-17T01:03:13.001Z,97.98
2018-09-17T01:04:13.034Z,98.18
2018-09-17T01:05:12.954Z,97.92
2018-09-17T01:06:13.018Z,97.72
2018-09-17T01:07:12.956Z,97.78
2018-09-17T01:08:12.919Z,97.57
2018-09-17T01:09:12.952Z,97.82
2018-09-17T01:10:12.894Z,98.18
2018-09-17T01:11:12.883Z,97.67
2018-09-17T01:12:12.898Z,97.57
2018-09-17T01:13:12.895Z,97.11
2018-09-17T01:14:12.862Z,96.80
2018-09-17T01:15:12.837Z,96.09
2018-09-17T01:16:12.826Z,96.19
2018-09-17T01:17:12.822Z,95.83
2018-09-17T01:18:12.836Z,95.83
2018-09-17T01:19:12.809Z,95.26
2018-09-17T01:20:12.785Z,95.57
2018-09-17T01:21:12.771Z,96.02
2018-09-17T01:22:12.765Z,96.69
2018-09-17T01:23:12.750Z,97.20
2018-09-17T01:24:12.784Z,97.91
2018-09-17T01:25:12.728Z,98.02
2018-09-17T01:26:12.719Z,97.78
2018-09-17T01:27:12.706Z,97.53
2018-09-17T01:28:12.695Z,96.15
2018-09-17T01:29:12.699Z,96.11
2018-09-17T01:30:12.695Z,94.54
2018-09-17T01:31:12.661Z,93.12
2018-09-17T01:32:12.664Z,92.61
2018-09-17T01:33:12.640Z,92.30
2018-09-17T01:34:12.641Z,91.86
2018-09-17T01:35:12.619Z,92.21
2018-09-17T01:36:12.634Z,91.23
2018-09-17T01:37:12.625Z,92.14
2018-09-17T01:38:12.609Z,92.09
2018-09-17T01:39:12.597Z,92.60
2018-09-17T01:40:12.567Z,92.74
2018-09-17T01:41:12.552Z,93.55
2018-09-17T01:42:12.544Z,93.96
2018-09-17T01:43:12.529Z,94.01
2018-09-17T01:44:12.564Z,94.92
2018-09-17T01:45:12.550Z,96.10
2018-09-17T01:46:12.516Z,95.69
2018-09-17T01:47:12.488Z,95.69
2018-09-17T01:48:12.481Z,95.20
2018-09-17T01:49:12.488Z,93.57
2018-09-17T01:50:12.484Z,92.61
2018-09-17T01:51:12.444Z,91.35
2018-09-17T01:52:12.431Z,90.84
2018-09-17T01:53:12.420Z,89.11
2018-09-17T01:54:12.411Z,89.76
2018-09-17T01:55:12.414Z,89.76
2018-09-17T01:56:12.414Z,90.62
2018-09-17T01:57:12.414Z,91.38
2018-09-17T01:58:12.365Z,90.70
2018-09-17T01:59:12.357Z,90.91
2018-09-17T02:00:12.374Z,91.56
2018-09-17T02:01:12.334Z,93.19
2018-09-17T02:02:12.322Z,93.13
2018-09-17T02:03:12.328Z,92.97
2018-09-17T02:04:12.328Z,94.09
2018-09-17T02:05:12.302Z,95.21
2018-09-17T02:06:12.276Z,95.26
2018-09-17T02:07:12.265Z,96.03
2018-09-17T02:08:12.270Z,96.14
2018-09-17T02:09:12.347Z,97.25
2018-09-17T02:10:12.285Z,96.66
2018-09-17T02:11:12.242Z,96.25
2018-09-17T02:12:12.213Z,96.15
2018-09-17T02:13:12.200Z,95.90
2018-09-17T02:14:12.226Z,94.69
2018-09-17T02:15:12.193Z,93.12
2018-09-17T02:16:12.168Z,91.86
2018-09-17T02:17:12.185Z,91.25
2018-09-17T02:18:12.146Z,90.49
2018-09-17T02:19:12.135Z,91.30
2018-09-17T02:20:12.138Z,90.59
2018-09-17T02:21:12.113Z,90.84
2018-09-17T02:22:12.099Z,90.44
2018-09-17T02:23:12.100Z,90.74
2018-09-17T02:24:12.080Z,90.74
2018-09-17T02:25:12.082Z,90.64
2018-09-17T02:26:12.057Z,90.94
2018-09-17T02:27:12.088Z,89.78
2018-09-17T02:28:12.036Z,89.68
2018-09-17T02:29:12.074Z,89.68
2018-09-17T02:30:12.109Z,89.58
2018-09-17T02:31:12.007Z,89.92
2018-09-17T02:32:11.993Z,89.98
2018-09-17T02:33:11.981Z,89.37
2018-09-17T02:34:11.979Z,89.78
2018-09-17T02:35:11.974Z,89.37
2018-09-17T02:36:11.986Z,89.17
2018-09-17T02:37:11.965Z,89.58
2018-09-17T02:38:11.926Z,89.17
2018-09-17T02:39:11.916Z,89.68
2018-09-17T02:40:11.920Z,89.54
2018-09-17T02:41:11.895Z,89.48
2018-09-17T02:42:11.883Z,89.78
2018-09-17T02:43:11.893Z,89.07
2018-09-17T02:44:11.862Z,89.78
2018-09-17T02:45:11.855Z,89.58
2018-09-17T02:46:11.858Z,89.48
2018-09-17T02:47:11.839Z,89.68
2018-09-17T02:48:11.816Z,89.68
2018-09-17T02:49:11.868Z,89.11
2018-09-17T02:50:11.799Z,89.68
2018-09-17T02:51:11.797Z,89.78
2018-09-17T02:52:11.773Z,89.22
2018-09-17T02:53:11.761Z,89.62
2018-09-17T02:54:11.754Z,89.98
2018-09-17T02:55:11.770Z,89.58
2018-09-17T02:56:11.746Z,89.78
2018-09-17T02:57:11.719Z,89.58
2018-09-17T02:58:11.707Z,88.97
2018-09-17T02:59:11.696Z,88.87
2018-09-17T03:00:11.685Z,88.36
2018-09-17T03:01:11.704Z,88.01
2018-09-17T03:02:11.690Z,87.92
2018-09-17T03:03:11.657Z,87.61
2018-09-17T03:04:11.640Z,87.61
2018-09-17T03:05:11.631Z,87.61
2018-09-17T03:06:11.632Z,87.20
2018-09-17T03:07:11.609Z,87.20
2018-09-17T03:08:11.618Z,87.61
2018-09-17T03:09:11.587Z,87.40
2018-09-17T03:10:11.576Z,87.81
2018-09-17T03:11:11.578Z,87.45
2018-09-17T03:12:11.582Z,88.36
2018-09-17T03:13:11.542Z,88.10
2018-09-17T03:14:11.561Z,88.65
2018-09-17T03:15:11.522Z,89.83
2018-09-17T03:16:11.523Z,89.87
2018-09-17T03:17:11.499Z,89.76
2018-09-17T03:18:11.489Z,89.97
2018-09-17T03:19:11.488Z,89.11
2018-09-17T03:20:11.483Z,88.97
2018-09-17T03:21:11.498Z,89.07
2018-09-17T03:22:11.470Z,88.67
2018-09-17T03:23:11.433Z,88.16
2018-09-17T03:24:11.421Z,88.12
2018-09-17T03:25:11.417Z,88.36
2018-09-17T03:26:11.418Z,88.46
2018-09-17T03:27:11.394Z,88.26
2018-09-17T03:28:11.405Z,88.26
2018-09-17T03:29:11.368Z,88.21
2018-09-17T03:30:11.359Z,88.46
2018-09-17T03:31:11.361Z,87.81
2018-09-17T03:32:11.349Z,87.20
2018-09-17T03:33:11.328Z,86.49
2018-09-17T03:34:11.342Z,86.49
2018-09-17T03:35:11.357Z,86.69
2018-09-17T03:36:11.318Z,87.20
2018-09-17T03:37:11.281Z,87.00
2018-09-17T03:38:11.268Z,87.00
2018-09-17T03:39:11.274Z,87.10
2018-09-17T03:40:11.248Z,87.71
2018-09-17T03:41:11.253Z,87.61
2018-09-17T03:42:11.268Z,87.65
2018-09-17T03:43:11.213Z,88.16
2018-09-17T03:44:11.205Z,87.79
2018-09-17T03:45:11.192Z,87.29
2018-09-17T03:46:11.184Z,89.26
2018-09-17T03:47:11.188Z,89.05
2018-09-17T03:48:11.204Z,89.36
2018-09-17T03:49:11.153Z,90.07
2018-09-17T03:50:11.139Z,89.46
2018-09-17T03:51:11.137Z,89.66
2018-09-17T03:52:11.131Z,89.72
2018-09-17T03:53:11.105Z,89.62
2018-09-17T03:54:11.151Z,88.30
2018-09-17T03:55:11.087Z,88.91
2018-09-17T03:56:11.073Z,88.60
2018-09-17T03:57:11.079Z,88.60
2018-09-17T03:58:11.051Z,88.60
2018-09-17T03:59:11.040Z,88.81
2018-09-17T04:00:11.044Z,88.67
2018-09-17T04:01:11.134Z,88.30
2018-09-17T04:02:11.043Z,88.20
2018-09-17T04:03:10.998Z,87.79
2018-09-17T04:04:11.012Z,88.40
2018-09-17T04:05:10.974Z,88.20
2018-09-17T04:06:10.987Z,87.99
2018-09-17T04:07:10.972Z,88.16
2018-09-17T04:08:10.941Z,88.10
2018-09-17T04:09:10.984Z,88.36
2018-09-17T04:10:10.923Z,87.55
2018-09-17T04:11:10.932Z,87.04
2018-09-17T04:12:10.912Z,87.24
2018-09-17T04:13:10.886Z,86.53
2018-09-17T04:14:10.874Z,87.34
2018-09-17T04:15:10.866Z,87.14
2018-09-17T04:16:10.867Z,86.63
2018-09-17T04:17:10.960Z,87.24
2018-09-17T04:18:10.833Z,87.18
2018-09-17T04:19:10.822Z,86.63
2018-09-17T04:20:10.809Z,86.94
2018-09-17T04:21:10.799Z,87.04
2018-09-17T04:22:10.803Z,86.83
2018-09-17T04:23:10.793Z,86.94
2018-09-17T04:24:10.784Z,86.94
2018-09-17T04:25:10.772Z,87.04
2018-09-17T04:26:10.755Z,86.33
2018-09-17T04:27:10.841Z,86.43
2018-09-17T04:28:10.733Z,86.33
2018-09-17T04:29:10.730Z,86.43
2018-09-17T04:30:10.807Z,86.33
2018-09-17T04:31:10.689Z,86.22
2018-09-17T04:32:10.743Z,86.43
2018-09-17T04:33:10.735Z,86.83
2018-09-17T04:34:10.656Z,87.14
2018-09-17T04:35:10.658Z,87.04
2018-09-17T04:36:10.636Z,87.18
2018-09-17T04:37:10.624Z,86.98
2018-09-17T04:38:10.627Z,87.04
2018-09-17T04:39:10.603Z,86.77
2018-09-17T04:40:10.595Z,86.27
2018-09-17T04:41:10.651Z,86.41
2018-09-17T04:42:10.596Z,86.41
2018-09-17T04:43:10.594Z,87.41
2018-09-17T04:44:10.545Z,87.30
2018-09-17T04:45:10.571Z,88.46
2018-09-17T04:46:10.525Z,87.90
2018-09-17T04:47:10.515Z,88.31
2018-09-17T04:48:10.551Z,88.34
2018-09-17T04:49:10.492Z,90.59
2018-09-17T04:50:10.483Z,91.03
2018-09-17T04:51:10.470Z,91.89
2018-09-17T04:52:10.461Z,91.53
2018-09-17T04:53:10.509Z,91.02
2018-09-17T04:54:10.437Z,91.16
2018-09-17T04:55:10.427Z,91.72
2018-09-17T04:56:10.417Z,91.20
2018-09-17T04:57:10.443Z,91.25
2018-09-17T04:58:10.406Z,91.56
2018-09-17T04:59:10.414Z,94.26
2018-09-17T05:00:10.374Z,95.69
2018-09-17T05:01:10.363Z,96.20
2018-09-17T05:02:10.348Z,96.30
2018-09-17T05:03:10.352Z,96.34
2018-09-17T05:04:10.329Z,95.84
2018-09-17T05:05:10.351Z,95.84
2018-09-17T05:06:10.307Z,96.14
2018-09-17T05:07:10.328Z,96.75
2018-09-17T05:08:10.299Z,96.70
2018-09-17T05:09:10.277Z,96.96
2018-09-17T05:10:10.263Z,97.16
2018-09-17T05:11:10.279Z,96.70
2018-09-17T05:12:10.256Z,97.00
2018-09-17T05:13:10.362Z,96.95
2018-09-17T05:14:10.218Z,96.74
2018-09-17T05:15:10.227Z,96.74
2018-09-17T05:16:10.196Z,97.25
2018-09-17T05:17:10.205Z,97.20
2018-09-17T05:18:10.219Z,97.30
2018-09-17T05:19:10.196Z,97.50
2018-09-17T05:20:10.185Z,98.18
2018-09-17T05:21:10.145Z,98.18
2018-09-17T05:22:10.131Z,97.97
2018-09-17T05:23:10.120Z,98.38
2018-09-17T05:24:10.125Z,98.28
2018-09-17T05:25:10.098Z,98.28
2018-09-17T05:26:10.114Z,98.58
2018-09-17T05:27:10.077Z,98.28
2018-09-17T05:28:10.066Z,97.97
2018-09-17T05:29:10.070Z,97.87
2018-09-17T05:30:10.046Z,97.97
2018-09-17T05:31:10.032Z,98.79
2018-09-17T05:32:10.035Z,98.28
2018-09-17T05:33:10.013Z,98.18
2018-09-17T05:34:10.018Z,98.07
2018-09-17T05:35:10.030Z,98.18
2018-09-17T05:36:09.979Z,98.18
2018-09-17T05:37:09.996Z,98.49
2018-09-17T05:38:09.974Z,99.26
2018-09-17T05:39:10.003Z,99.15
2018-09-17T05:40:09.936Z,98.85
2018-09-17T05:41:09.925Z,99.15
2018-09-17T05:42:09.914Z,98.85
2018-09-17T05:43:09.902Z,99.26
2018-09-17T05:44:09.905Z,98.65
2018-09-17T05:45:09.915Z,98.60
2018-09-17T05:46:09.873Z,98.54
2018-09-17T05:47:09.859Z,98.54
2018-09-17T05:48:09.848Z,98.74
2018-09-17T05:49:09.851Z,98.49
2018-09-17T05:50:09.827Z,99.01
2018-09-17T05:51:09.852Z,98.80
2018-09-17T05:52:09.804Z,98.80
2018-09-17T05:53:09.795Z,98.70
2018-09-17T05:54:09.809Z,99.11
2018-09-17T05:55:09.772Z,98.96
2018-09-17T05:56:09.760Z,99.16
2018-09-17T05:57:09.822Z,99.11
2018-09-17T05:58:09.743Z,99.22
2018-09-17T05:59:09.741Z,99.07
2018-09-17T06:00:09.718Z,99.18
2018-09-17T06:01:09.709Z,99.02
2018-09-17T06:02:09.695Z,98.82
2018-09-17T06:03:09.696Z,98.36
2018-09-17T06:04:09.689Z,98.13
2018-09-17T06:05:09.666Z,97.23
2018-09-17T06:06:09.717Z,93.33
2018-09-17T06:07:09.719Z,88.84
2018-09-17T06:08:09.629Z,89.17
2018-09-17T06:09:09.676Z,86.19
2018-09-17T06:10:09.610Z,84.59
2018-09-17T06:11:09.598Z,81.71
2018-09-17T06:12:09.589Z,80.26
2018-09-17T06:13:09.587Z,79.82
2018-09-17T06:14:09.564Z,77.70
2018-09-17T06:15:09.616Z,75.71
2018-09-17T06:16:09.541Z,72.41
2018-09-17T06:17:09.531Z,73.25
2018-09-17T06:18:09.521Z,72.67
2018-09-17T06:19:09.509Z,70.32
2018-09-17T06:20:09.512Z,68.85
2018-09-17T06:21:09.503Z,68.82
2018-09-17T06:22:09.502Z,65.36
2018-09-17T06:23:09.502Z,65.33
2018-09-17T06:24:09.454Z,64.00
2018-09-17T06:25:09.457Z,63.73
2018-09-17T06:26:09.436Z,63.31
2018-09-17T06:27:09.421Z,61.27
2018-09-17T06:28:09.431Z,61.10
2018-09-17T06:29:09.401Z,61.47
2018-09-17T06:30:09.403Z,59.83
2018-09-17T06:31:09.378Z,61.04
2018-09-17T06:32:09.370Z,61.21
2018-09-17T06:33:09.379Z,59.70
2018-09-17T06:34:09.442Z,59.48
2018-09-17T06:35:09.512Z,60.05
2018-09-17T06:36:09.504Z,57.24
2018-09-17T06:37:09.329Z,57.82
2018-09-17T06:38:09.302Z,58.58
2018-09-17T06:39:09.289Z,57.90
2018-09-17T06:40:09.312Z,60.14
2018-09-17T06:41:09.283Z,60.27
2018-09-17T06:42:09.266Z,59.81
2018-09-17T06:43:09.253Z,58.18
2018-09-17T06:44:09.311Z,58.72
2018-09-17T06:45:09.270Z,57.55
2018-09-17T06:46:09.216Z,56.22
2018-09-17T06:47:09.219Z,56.46
2018-09-17T06:48:09.232Z,55.27
2018-09-17T06:49:09.230Z,54.54
2018-09-17T06:50:09.197Z,56.67
2018-09-17T06:51:09.189Z,55.36
2018-09-17T06:52:09.149Z,56.16
2018-09-17T06:53:09.156Z,57.34
2018-09-17T06:54:09.148Z,55.32
2018-09-17T06:55:09.131Z,56.87
2018-09-17T06:56:09.106Z,57.12
2018-09-17T06:57:09.101Z,56.12
2018-09-17T06:58:09.127Z,55.66
2018-09-17T06:59:09.089Z,56.59
2018-09-17T07:00:09.074Z,54.67
2018-09-17T07:01:09.076Z,56.72
2018-09-17T07:02:09.050Z,55.97
2018-09-17T07:03:09.077Z,54.39
2018-09-17T07:04:09.024Z,55.82
2018-09-17T07:05:09.039Z,56.70
2018-09-17T07:06:09.016Z,56.27
2018-09-17T07:07:09.006Z,55.34
2018-09-17T07:08:09.015Z,54.34
2018-09-17T07:09:08.966Z,54.52
2018-09-17T07:10:08.972Z,54.39
2018-09-17T07:11:08.958Z,53.34
2018-09-17T07:12:08.955Z,54.06
2018-09-17T07:13:08.922Z,53.47
2018-09-17T07:14:08.908Z,52.04
2018-09-17T07:15:08.931Z,53.59
2018-09-17T07:16:08.909Z,53.12
2018-09-17T07:17:08.899Z,52.67
2018-09-17T07:18:08.954Z,54.14
2018-09-17T07:19:08.873Z,55.29
2018-09-17T07:20:08.899Z,53.72
2018-09-17T07:21:08.894Z,55.36
2018-09-17T07:22:08.874Z,56.61
2018-09-17T07:23:08.838Z,53.92
2018-09-17T07:24:08.828Z,55.41
2018-09-17T07:25:08.803Z,53.84
2018-09-17T07:26:08.816Z,52.34
2018-09-17T07:27:08.788Z,53.74
2018-09-17T07:28:08.765Z,55.97
2018-09-17T07:29:08.744Z,55.77
2018-09-17T07:30:08.733Z,53.89
2018-09-17T07:31:08.771Z,54.21
2018-09-17T07:32:08.710Z,52.09
2018-09-17T07:33:08.701Z,52.22
2018-09-17T07:34:08.691Z,50.32
2018-09-17T07:35:08.678Z,53.36
2018-09-17T07:36:08.768Z,51.62
2018-09-17T07:37:08.657Z,51.25
2018-09-17T07:38:08.652Z,53.81
2018-09-17T07:39:08.638Z,52.26
2018-09-17T07:40:08.625Z,51.84
2018-09-17T07:41:08.628Z,51.32
2018-09-17T07:42:08.716Z,49.81
2018-09-17T07:43:08.610Z,46.81
2018-09-17T07:44:08.582Z,49.91
2018-09-17T07:45:08.573Z,48.60
2018-09-17T07:46:08.582Z,48.60
2018-09-17T07:47:08.552Z,48.30
2018-09-17T07:48:08.538Z,48.99
2018-09-17T07:49:08.555Z,46.31
2018-09-17T07:50:08.517Z,48.08
2018-09-17T07:51:08.519Z,47.66
2018-09-17T07:52:08.495Z,47.58
2018-09-17T07:53:08.489Z,49.88
2018-09-17T07:54:08.469Z,47.28
2018-09-17T07:55:08.561Z,47.46
2018-09-17T07:56:08.469Z,46.74
2018-09-17T07:57:08.466Z,47.04
2018-09-17T07:58:08.429Z,48.53
2018-09-17T07:59:08.420Z,48.67
2018-09-17T08:00:08.462Z,48.38
2018-09-17T08:01:08.491Z,49.39
2018-09-17T08:02:08.400Z,49.59
2018-09-17T08:03:08.370Z,49.74
2018-09-17T08:04:08.381Z,47.50
2018-09-17T08:05:08.363Z,47.49
2018-09-17T08:06:08.430Z,48.47
2018-09-17T08:07:08.345Z,47.01
2018-09-17T08:08:08.332Z,50.85
2018-09-17T08:09:08.313Z,50.43
2018-09-17T08:10:08.331Z,49.71
2018-09-17T08:11:08.301Z,51.23
2018-09-17T08:12:08.301Z,50.60
2018-09-17T08:13:08.268Z,50.78
2018-09-17T08:14:08.251Z,49.71
2018-09-17T08:15:08.283Z,47.14
2018-09-17T08:16:08.274Z,46.37
2018-09-17T08:17:08.260Z,49.86
2018-09-17T08:18:08.244Z,48.50
2018-09-17T08:19:08.207Z,48.52
2018-09-17T08:20:08.205Z,48.42
2018-09-17T08:21:08.173Z,48.44
2018-09-17T08:22:08.186Z,50.10
2018-09-17T08:23:08.204Z,50.16
2018-09-17T08:24:08.150Z,49.88
2018-09-17T08:25:08.140Z,46.17
2018-09-17T08:26:08.137Z,48.72
2018-09-17T08:27:08.148Z,48.63
2018-09-17T08:28:08.101Z,48.28
2018-09-17T08:29:08.128Z,46.16
2018-09-17T08:30:08.086Z,46.78
2018-09-17T08:31:08.082Z,46.08
2018-09-17T08:32:08.084Z,48.73
2018-09-17T08:33:08.052Z,44.43
2018-09-17T08:34:08.058Z,43.21
2018-09-17T08:35:08.030Z,42.52
2018-09-17T08:36:08.073Z,43.41
2018-09-17T08:37:08.087Z,42.61
2018-09-17T08:38:08.009Z,45.67
2018-09-17T08:39:08.019Z,42.69
2018-09-17T08:40:07.989Z,46.17
2018-09-17T08:41:07.974Z,46.47
2018-09-17T08:42:07.982Z,44.74
2018-09-17T08:43:07.936Z,41.57
2018-09-17T08:44:07.942Z,44.87
2018-09-17T08:45:07.926Z,43.29
2018-09-17T08:46:07.918Z,42.69
2018-09-17T08:47:07.942Z,41.78
2018-09-17T08:48:07.946Z,40.78
2018-09-17T08:49:07.887Z,40.56
2018-09-17T08:50:07.875Z,43.03
2018-09-17T08:51:07.870Z,40.21
2018-09-17T08:52:07.874Z,42.79
2018-09-17T08:53:07.858Z,40.92
2018-09-17T08:54:07.823Z,41.53
2018-09-17T08:55:07.809Z,43.31
2018-09-17T08:56:07.845Z,44.65
2018-09-17T08:57:07.804Z,44.01
2018-09-17T08:58:07.826Z,42.12
2018-09-17T08:59:07.765Z,41.45
2018-09-17T09:00:07.766Z,40.29
2018-09-17T09:01:07.807Z,43.34
2018-09-17T09:02:07.757Z,42.77
2018-09-17T09:03:07.725Z,45.75
2018-09-17T09:04:07.755Z,41.47
2018-09-17T09:05:07.763Z,41.49
2018-09-17T09:06:07.704Z,40.76
2018-09-17T09:07:07.721Z,43.13
2018-09-17T09:08:07.676Z,43.73
2018-09-17T09:09:07.727Z,42.61
2018-09-17T09:10:07.647Z,42.64
2018-09-17T09:11:07.639Z,42.78
2018-09-17T09:12:07.634Z,43.66
2018-09-17T09:13:07.646Z,42.11
2018-09-17T09:14:07.633Z,44.82
2018-09-17T09:15:07.605Z,44.74
2018-09-17T09:16:07.588Z,43.41
2018-09-17T09:17:07.619Z,42.11
2018-09-17T09:18:07.605Z,42.78
2018-09-17T09:19:07.555Z,41.31
2018-09-17T09:20:07.554Z,42.22
2018-09-17T09:21:07.538Z,42.80
2018-09-17T09:22:07.532Z,42.50
2018-09-17T09:23:07.532Z,43.52
2018-09-17T09:24:07.606Z,43.86
2018-09-17T09:25:07.539Z,38.87
2018-09-17T09:26:07.587Z,42.64
2018-09-17T09:27:07.522Z,45.95
2018-09-17T09:28:07.501Z,41.67
2018-09-17T09:29:07.464Z,40.00
2018-09-17T09:30:07.478Z,44.11
2018-09-17T09:31:07.456Z,39.07
2018-09-17T09:32:07.465Z,38.74
2018-09-17T09:33:07.420Z,38.15
2018-09-17T09:34:07.438Z,38.56
2018-09-17T09:35:07.394Z,42.40
2018-09-17T09:36:07.390Z,39.03
2018-09-17T09:37:07.367Z,40.86
2018-09-17T09:38:07.448Z,39.05
2018-09-17T09:39:07.344Z,39.01
2018-09-17T09:40:07.343Z,40.19
2018-09-17T09:41:07.330Z,38.74
2018-09-17T09:42:07.321Z,42.52
2018-09-17T09:43:07.375Z,40.45
2018-09-17T09:44:07.308Z,39.68
2018-09-17T09:45:07.285Z,42.04
2018-09-17T09:46:07.281Z,42.59
2018-09-17T09:47:07.270Z,42.34
2018-09-17T09:48:07.286Z,40.88
2018-09-17T09:49:07.247Z,44.31
2018-09-17T09:50:07.243Z,42.69
2018-09-17T09:51:07.237Z,40.23
2018-09-17T09:52:07.208Z,41.71
2018-09-17T09:53:07.244Z,40.03
2018-09-17T09:54:07.198Z,40.53
2018-09-17T09:55:07.183Z,41.67
2018-09-17T09:56:07.207Z,46.00
2018-09-17T09:57:07.169Z,43.59
2018-09-17T09:58:07.181Z,43.48
2018-09-17T09:59:07.170Z,45.90
2018-09-17T10:00:07.157Z,46.25
2018-09-17T10:01:07.164Z,43.70
2018-09-17T10:02:07.110Z,42.52
2018-09-17T10:03:07.105Z,42.38
2018-09-17T10:04:07.137Z,41.94
2018-09-17T10:05:07.090Z,42.49
2018-09-17T10:06:07.174Z,40.90
2018-09-17T10:07:07.059Z,40.82
2018-09-17T10:08:07.077Z,42.00
2018-09-17T10:09:07.064Z,41.03
2018-09-17T10:10:07.050Z,41.94
2018-09-17T10:11:07.039Z,40.84
2018-09-17T10:12:07.041Z,41.21
2018-09-17T10:13:07.043Z,41.61
2018-09-17T10:14:07.053Z,40.53
2018-09-17T10:15:07.016Z,38.98
2018-09-17T10:16:06.964Z,40.25
2018-09-17T10:17:07.014Z,39.37
2018-09-17T10:18:06.946Z,39.58
2018-09-17T10:19:06.970Z,41.37
2018-09-17T10:20:06.938Z,42.14
2018-09-17T10:21:06.941Z,39.86
2018-09-17T10:22:06.967Z,39.72
2018-09-17T10:23:06.909Z,39.11
2018-09-17T10:24:07.005Z,39.98
2018-09-17T10:25:06.927Z,39.49
2018-09-17T10:26:06.868Z,37.35
2018-09-17T10:27:06.874Z,44.82
2018-09-17T10:28:06.842Z,38.15
2018-09-17T10:29:06.850Z,37.37
2018-09-17T10:30:06.862Z,37.05
2018-09-17T10:31:06.836Z,39.90
2018-09-17T10:32:06.861Z,36.66
2018-09-17T10:33:06.806Z,37.78
2018-09-17T10:34:06.806Z,36.13
2018-09-17T10:35:06.783Z,37.15
2018-09-17T10:36:06.771Z,40.47
2018-09-17T10:37:06.777Z,39.06
2018-09-17T10:38:06.749Z,38.84
2018-09-17T10:39:06.753Z,39.98
2018-09-17T10:40:06.742Z,37.33
2018-09-17T10:41:06.718Z,36.68
2018-09-17T10:42:06.704Z,39.31
2018-09-17T10:43:06.700Z,36.57
2018-09-17T10:44:06.698Z,39.31
2018-09-17T10:45:06.700Z,37.82
2018-09-17T10:46:06.682Z,37.52
2018-09-17T10:47:06.664Z,37.90
2018-09-17T10:48:06.695Z,41.03
2018-09-17T10:49:06.659Z,36.61
2018-09-17T10:50:06.670Z,37.67
2018-09-17T10:51:06.616Z,40.80
2018-09-17T10:52:06.618Z,37.96
2018-09-17T10:53:06.631Z,37.35
2018-09-17T10:54:06.634Z,36.20
2018-09-17T10:55:06.580Z,37.79
2018-09-17T10:56:06.574Z,39.06
2018-09-17T10:57:06.553Z,36.61
2018-09-17T10:58:06.581Z,38.16
2018-09-17T10:59:06.547Z,36.69
2018-09-17T11:00:06.557Z,36.59
2018-09-17T11:01:06.524Z,35.22
2018-09-17T11:02:06.501Z,39.33
2018-09-17T11:03:06.504Z,37.39
2018-09-17T11:04:06.558Z,40.41
2018-09-17T11:05:06.486Z,39.43
2018-09-17T11:06:06.475Z,37.35
2018-09-17T11:07:06.491Z,34.42
2018-09-17T11:08:06.485Z,35.34
2018-09-17T11:09:06.447Z,35.88
2018-09-17T11:10:06.490Z,37.23
2018-09-17T11:11:06.421Z,36.33
2018-09-17T11:12:06.406Z,38.75
2018-09-17T11:13:06.403Z,39.70
2018-09-17T11:14:06.389Z,35.42
2018-09-17T11:15:06.443Z,37.57
2018-09-17T11:16:06.367Z,35.52
2018-09-17T11:17:06.362Z,34.94
2018-09-17T11:18:06.357Z,36.14
2018-09-17T11:19:06.343Z,37.71
2018-09-17T11:20:06.351Z,38.08
2018-09-17T11:21:06.313Z,36.43
2018-09-17T11:22:06.311Z,36.24
2018-09-17T11:23:06.305Z,38.21
2018-09-17T11:24:06.288Z,38.80
2018-09-17T11:25:06.336Z,37.59
2018-09-17T11:26:06.272Z,35.24
2018-09-17T11:27:06.272Z,36.79
2018-09-17T11:28:06.299Z,37.16
2018-09-17T11:29:06.272Z,36.08
2018-09-17T11:30:06.282Z,36.49
2018-09-17T11:31:06.231Z,35.16
2018-09-17T11:32:06.235Z,36.51
2018-09-17T11:33:06.237Z,37.61
2018-09-17T11:34:06.219Z,38.90
2018-09-17T11:35:06.214Z,37.90
2018-09-17T11:36:06.203Z,36.39
2018-09-17T11:37:06.182Z,36.11
2018-09-17T11:38:06.149Z,36.11
2018-09-17T11:39:06.147Z,38.06
2018-09-17T11:40:06.130Z,37.68
2018-09-17T11:41:06.151Z,37.60
2018-09-17T11:42:06.108Z,40.16
2018-09-17T11:43:06.127Z,36.40
2018-09-17T11:44:06.091Z,39.15
2018-09-17T11:45:06.087Z,37.80
2018-09-17T11:46:06.312Z,39.56
2018-09-17T11:47:06.090Z,36.72
2018-09-17T11:48:06.066Z,36.60
2018-09-17T11:49:06.040Z,38.09
2018-09-17T11:50:06.019Z,37.72
2018-09-17T11:51:06.031Z,36.65
2018-09-17T11:52:06.082Z,37.15
2018-09-17T11:53:06.043Z,36.65
2018-09-17T11:54:06.140Z,39.21
2018-09-17T11:55:05.974Z,40.70
2018-09-17T11:56:05.992Z,36.67
2018-09-17T11:57:05.951Z,37.28
2018-09-17T11:58:05.970Z,37.76
2018-09-17T11:59:05.972Z,36.97
2018-09-17T12:00:05.984Z,36.05
2018-09-17T12:01:05.924Z,35.38
2018-09-17T12:02:05.912Z,39.92
2018-09-17T12:03:05.886Z,37.34
2018-09-17T12:04:05.893Z,36.49
2018-09-17T12:05:05.863Z,37.77
2018-09-17T12:06:05.876Z,37.67
2018-09-17T12:07:05.865Z,36.80
2018-09-17T12:08:05.844Z,39.86
2018-09-17T12:09:05.867Z,40.25
2018-09-17T12:10:05.834Z,40.16
2018-09-17T12:11:05.849Z,38.17
2018-09-17T12:12:05.805Z,37.40
2018-09-17T12:13:05.800Z,39.86
2018-09-17T12:14:05.774Z,39.26
2018-09-17T12:15:05.761Z,37.69
2018-09-17T12:16:05.779Z,37.12
2018-09-17T12:17:05.737Z,38.89
2018-09-17T12:18:05.733Z,39.18
2018-09-17T12:19:05.722Z,37.51
2018-09-17T12:20:05.723Z,37.99
2018-09-17T12:21:05.714Z,37.89
2018-09-17T12:22:05.702Z,36.82
2018-09-17T12:23:05.680Z,37.61
2018-09-17T12:24:05.705Z,40.27
2018-09-17T12:25:05.671Z,36.55
2018-09-17T12:26:05.674Z,35.77
2018-09-17T12:27:05.639Z,39.03
2018-09-17T12:28:05.675Z,39.23
2018-09-17T12:29:05.642Z,39.42
2018-09-17T12:30:05.611Z,37.35
2018-09-17T12:31:05.635Z,37.53
2018-09-17T12:32:05.582Z,37.34
2018-09-17T12:33:05.586Z,36.27
2018-09-17T12:34:05.560Z,36.57
2018-09-17T12:35:05.562Z,36.29
2018-09-17T12:36:05.560Z,41.89
2018-09-17T12:37:05.579Z,37.74
2018-09-17T12:38:05.566Z,37.85
2018-09-17T12:39:05.528Z,37.45
2018-09-17T12:40:05.516Z,37.74
2018-09-17T12:41:05.530Z,38.14
2018-09-17T12:42:05.498Z,36.36
2018-09-17T12:43:05.475Z,35.79
2018-09-17T12:44:05.483Z,37.96
2018-09-17T12:45:05.446Z,37.55
2018-09-17T12:46:05.449Z,36.29
2018-09-17T12:47:05.445Z,36.60
2018-09-17T12:48:05.445Z,38.47
2018-09-17T12:49:05.425Z,38.18
2018-09-17T12:50:05.430Z,37.30
2018-09-17T12:51:05.391Z,38.29
2018-09-17T12:52:05.395Z,39.18